Time;durP1;ratioP1;P1;durP2;ratioP2;P2;SDS_P1;SDS_P2;PMS_P1;PMS_P2;Temp;Humidity;BMP_temperature;BMP_pressure;BME280_temperature;BME280_humidity;BME280_pressure;Samples;Min_cycle;Max_cycle;Signal;HPM_P1;HPM_P2
2021/07/22 00:00:27;;;;;;;11.47;8.50;;;20.40;99.90;;;;;;6153347;23;20383;-49
2021/07/22 00:02:54;;;;;;;9.60;7.90;;;20.40;99.90;;;;;;6152660;23;20403;-47
2021/07/22 00:05:21;;;;;;;11.97;8.10;;;20.40;99.90;;;;;;6153087;23;20398;-50
2021/07/22 00:07:49;;;;;;;15.17;10.73;;;20.40;99.90;;;;;;6153128;23;20402;-51
2021/07/22 00:10:16;;;;;;;15.53;10.20;;;20.50;99.90;;;;;;6152781;23;20407;-49
2021/07/22 00:12:44;;;;;;;14.53;7.90;;;20.40;99.90;;;;;;6152200;23;20457;-51
2021/07/22 00:15:12;;;;;;;9.50;7.03;;;20.50;99.90;;;;;;6152032;23;20766;-50
2021/07/22 00:17:38;;;;;;;9.93;8.53;;;20.40;99.90;;;;;;6152421;23;20405;-47
2021/07/22 00:20:07;;;;;;;11.80;9.80;;;20.40;99.90;;;;;;6152523;23;20387;-52
2021/07/22 00:22:36;;;;;;;13.27;9.10;;;20.40;99.90;;;;;;6152707;23;20405;-50
2021/07/22 00:25:07;;;;;;;11.87;8.40;;;20.40;99.90;;;;;;6152210;23;20379;-51
2021/07/22 00:27:34;;;;;;;13.03;8.67;;;20.40;99.90;;;;;;6152646;23;20379;-47
2021/07/22 00:30:01;;;;;;;13.53;8.77;;;20.40;99.90;;;;;;6152192;23;20418;-52
2021/07/22 00:32:28;;;;;;;13.70;7.27;;;20.40;99.90;;;;;;6152473;23;20470;-48
2021/07/22 00:34:54;;;;;;;11.53;8.30;;;20.40;99.90;;;;;;6152155;23;20403;-48
2021/07/22 00:37:21;;;;;;;12.07;8.83;;;20.40;99.90;;;;;;6152052;23;20399;-53
2021/07/22 00:39:48;;;;;;;11.00;8.40;;;20.30;99.90;;;;;;6152684;23;20387;-48
2021/07/22 00:42:16;;;;;;;9.60;7.40;;;20.30;99.90;;;;;;6151325;23;20382;-53
2021/07/22 00:44:42;;;;;;;10.50;8.77;;;20.30;99.90;;;;;;6151599;23;20442;-50
2021/07/22 00:47:09;;;;;;;14.20;8.43;;;20.30;99.90;;;;;;6152252;23;20363;-52
2021/07/22 00:49:35;;;;;;;11.97;8.40;;;20.30;99.90;;;;;;6151949;23;20407;-50
2021/07/22 00:52:02;;;;;;;10.50;7.10;;;20.30;99.90;;;;;;6152278;23;20423;-52
2021/07/22 00:54:29;;;;;;;16.70;9.40;;;20.30;99.90;;;;;;6151816;23;20382;-53
2021/07/22 00:56:55;;;;;;;11.37;8.30;;;20.30;99.90;;;;;;6152302;23;20403;-50
2021/07/22 00:59:23;;;;;;;11.37;8.13;;;20.30;99.90;;;;;;6151978;23;20421;-48
2021/07/22 01:01:50;;;;;;;11.00;8.13;;;20.20;99.90;;;;;;6152534;23;20406;-51
2021/07/22 01:04:18;;;;;;;10.40;8.00;;;20.20;99.90;;;;;;6152688;23;20407;-50
2021/07/22 01:06:44;;;;;;;9.83;7.63;;;20.20;99.90;;;;;;6153295;23;20413;-51
2021/07/22 01:09:11;;;;;;;10.90;8.30;;;20.20;99.90;;;;;;6154779;23;20434;-48
2021/07/22 01:11:41;;;;;;;12.63;8.63;;;20.30;99.90;;;;;;6155612;23;20438;-51
2021/07/22 01:14:07;;;;;;;10.50;8.50;;;20.20;99.90;;;;;;6154513;23;20410;-55
2021/07/22 01:16:35;;;;;;;12.60;8.50;;;20.20;99.90;;;;;;6153596;23;20406;-50
2021/07/22 01:19:02;;;;;;;13.97;8.80;;;20.20;99.90;;;;;;6153638;23;20439;-48
2021/07/22 01:21:30;;;;;;;12.97;9.27;;;20.20;99.90;;;;;;6153183;23;20399;-48
2021/07/22 01:23:56;;;;;;;13.80;9.23;;;20.20;99.90;;;;;;6153660;23;20406;-52
2021/07/22 01:26:26;;;;;;;18.30;9.00;;;20.20;99.90;;;;;;6153387;23;20402;-51
2021/07/22 01:28:52;;;;;;;10.83;7.90;;;20.20;99.90;;;;;;6153328;23;20441;-53
2021/07/22 01:31:24;;;;;;;10.70;8.07;;;20.10;99.90;;;;;;6153430;23;20422;-51
2021/07/22 01:33:51;;;;;;;16.00;9.67;;;20.10;99.90;;;;;;6153460;23;20403;-52
2021/07/22 01:36:22;;;;;;;12.00;7.90;;;20.10;99.90;;;;;;6153439;23;20443;-50
2021/07/22 01:38:50;;;;;;;10.93;8.17;;;20.10;99.90;;;;;;6153529;23;20688;-50
2021/07/22 01:41:17;;;;;;;12.77;9.20;;;20.10;99.90;;;;;;6154818;23;20403;-46
2021/07/22 01:43:44;;;;;;;10.67;8.40;;;20.10;99.90;;;;;;6154343;23;20435;-49
2021/07/22 01:46:12;;;;;;;12.03;8.27;;;20.10;99.90;;;;;;6154844;23;20427;-52
2021/07/22 01:48:39;;;;;;;15.00;8.87;;;20.00;99.90;;;;;;6155625;23;20425;-51
2021/07/22 01:51:06;;;;;;;11.40;7.83;;;20.00;99.90;;;;;;6155145;23;20391;-54
2021/07/22 01:53:33;;;;;;;11.83;8.40;;;20.10;99.90;;;;;;6153606;23;20451;-52
2021/07/22 01:56:05;;;;;;;15.70;9.30;;;20.10;99.90;;;;;;6147957;23;20403;-49
2021/07/22 01:58:31;;;;;;;10.47;8.33;;;20.10;99.90;;;;;;6144827;23;20390;-48
2021/07/22 02:00:58;;;;;;;15.47;9.57;;;20.10;99.90;;;;;;6144842;23;20398;-50
2021/07/22 02:03:25;;;;;;;10.73;8.30;;;20.10;99.90;;;;;;6143984;23;20477;-48
2021/07/22 02:05:51;;;;;;;16.77;9.80;;;20.10;99.90;;;;;;6143819;23;20430;-47
2021/07/22 02:08:18;;;;;;;14.70;10.37;;;20.10;99.90;;;;;;6143848;23;20398;-47
2021/07/22 02:10:44;;;;;;;17.70;10.47;;;20.10;99.90;;;;;;6143935;23;20411;-48
2021/07/22 02:13:12;;;;;;;13.00;9.57;;;20.00;99.90;;;;;;6143511;23;20435;-49
2021/07/22 02:15:39;;;;;;;19.33;10.93;;;20.00;99.90;;;;;;6143535;23;20406;-50
2021/07/22 02:18:06;;;;;;;13.40;9.97;;;20.00;99.90;;;;;;6143277;23;20434;-48
2021/07/22 02:20:32;;;;;;;18.40;10.50;;;20.00;99.90;;;;;;6143712;23;20411;-49
2021/07/22 02:22:59;;;;;;;17.90;10.40;;;20.00;99.90;;;;;;6143901;23;20403;-46
2021/07/22 02:25:26;;;;;;;18.37;10.07;;;20.00;99.90;;;;;;6143900;23;20481;-48
2021/07/22 02:27:52;;;;;;;14.20;9.90;;;20.00;99.90;;;;;;6143719;23;20412;-46
2021/07/22 02:30:20;;;;;;;15.90;9.80;;;19.90;99.90;;;;;;6145838;23;20387;-51
2021/07/22 02:32:47;;;;;;;14.10;9.37;;;19.90;99.90;;;;;;6154960;23;20436;-52
2021/07/22 02:35:14;;;;;;;10.53;9.40;;;19.90;99.90;;;;;;6152910;23;20395;-51
2021/07/22 02:37:40;;;;;;;11.27;9.10;;;19.90;99.90;;;;;;6152313;23;20422;-52
2021/07/22 02:40:08;;;;;;;14.13;9.50;;;19.90;99.90;;;;;;6152097;23;20402;-50
2021/07/22 02:42:35;;;;;;;11.33;9.27;;;19.90;99.90;;;;;;6151958;23;20419;-52
2021/07/22 02:45:01;;;;;;;13.37;9.73;;;19.90;99.90;;;;;;6152294;23;20438;-52
2021/07/22 02:47:29;;;;;;;11.40;8.87;;;19.90;99.90;;;;;;6152392;23;20704;-52
2021/07/22 02:49:56;;;;;;;10.30;7.67;;;19.90;99.90;;;;;;6144481;23;20410;-51
2021/07/22 02:52:23;;;;;;;12.00;8.13;;;19.80;99.90;;;;;;6143733;23;20442;-50
2021/07/22 02:54:49;;;;;;;8.63;7.27;;;19.80;99.90;;;;;;6143696;23;20438;-47
2021/07/22 02:57:16;;;;;;;16.33;8.50;;;19.80;99.90;;;;;;6143409;23;20466;-50
2021/07/22 02:59:43;;;;;;;10.43;8.20;;;19.80;99.90;;;;;;6144240;23;20414;-47
2021/07/22 03:02:09;;;;;;;12.07;9.10;;;19.80;99.90;;;;;;6143214;23;20402;-45
2021/07/22 03:04:37;;;;;;;10.23;8.83;;;19.80;99.90;;;;;;6142336;23;20402;-47
2021/07/22 03:07:05;;;;;;;12.63;7.30;;;19.80;99.90;;;;;;6152542;23;20391;-52
2021/07/22 03:09:31;;;;;;;10.70;8.10;;;19.80;99.90;;;;;;6153543;23;20423;-52
2021/07/22 03:12:01;;;;;;;12.07;8.00;;;19.70;99.90;;;;;;6153265;23;20429;-52
2021/07/22 03:14:28;;;;;;;11.67;7.93;;;19.70;99.90;;;;;;6153172;23;20410;-50
2021/07/22 03:16:54;;;;;;;11.13;7.07;;;19.70;99.90;;;;;;6152898;23;20399;-52
2021/07/22 03:19:22;;;;;;;11.00;8.37;;;19.80;99.90;;;;;;6153307;23;20406;-52
2021/07/22 03:21:49;;;;;;;11.60;7.60;;;19.70;99.90;;;;;;6153556;23;20382;-52
2021/07/22 03:24:16;;;;;;;10.47;7.20;;;19.70;99.90;;;;;;6153580;23;20395;-52
2021/07/22 03:26:43;;;;;;;12.90;8.70;;;19.70;99.90;;;;;;6154748;23;20395;-53
2021/07/22 03:29:10;;;;;;;11.43;8.10;;;19.70;99.90;;;;;;6154619;23;20386;-51
2021/07/22 03:31:36;;;;;;;14.00;8.23;;;19.70;99.90;;;;;;6154242;23;20398;-45
2021/07/22 03:34:03;;;;;;;10.57;7.60;;;19.70;99.90;;;;;;6154793;23;20387;-51
2021/07/22 03:36:29;;;;;;;10.70;7.60;;;19.70;99.90;;;;;;6132935;23;20767;-50
2021/07/22 03:38:57;;;;;;;10.60;7.73;;;19.60;99.90;;;;;;6129667;23;20751;-47
2021/07/22 03:41:27;;;;;;;9.87;8.07;;;19.60;99.90;;;;;;6127845;23;20527;-48
2021/07/22 03:43:53;;;;;;;11.70;9.13;;;19.60;99.90;;;;;;6126759;23;20909;-46
2021/07/22 03:46:20;;;;;;;16.83;7.97;;;19.60;99.90;;;;;;6128560;23;20434;-48
2021/07/22 03:48:47;;;;;;;12.23;8.37;;;19.60;99.90;;;;;;6128797;23;20869;-47
2021/07/22 03:51:13;;;;;;;9.77;7.30;;;19.60;99.90;;;;;;6128792;23;20753;-51
2021/07/22 03:53:40;;;;;;;13.73;8.27;;;19.60;99.90;;;;;;6128208;23;20929;-46
2021/07/22 03:56:08;;;;;;;9.83;7.20;;;19.60;99.90;;;;;;6128093;23;20907;-48
2021/07/22 03:58:35;;;;;;;9.50;7.57;;;19.70;99.90;;;;;;6128290;23;20406;-46
2021/07/22 04:01:01;;;;;;;13.63;9.70;;;19.70;99.90;;;;;;6128860;23;20430;-46
2021/07/22 04:03:28;;;;;;;16.57;9.80;;;19.70;99.90;;;;;;6128659;23;20555;-49
2021/07/22 04:05:56;;;;;;;12.30;9.03;;;19.70;99.90;;;;;;6129029;23;20410;-47
2021/07/22 04:08:22;;;;;;;23.33;10.40;;;19.70;99.90;;;;;;6128029;23;20418;-44
2021/07/22 04:10:49;;;;;;;13.73;9.50;;;19.70;99.90;;;;;;6128048;23;20407;-44
2021/07/22 04:13:17;;;;;;;13.17;9.27;;;19.60;99.90;;;;;;6128725;23;20442;-45
2021/07/22 04:15:44;;;;;;;11.73;8.83;;;19.70;99.90;;;;;;6128986;23;20406;-45
2021/07/22 04:18:10;;;;;;;12.77;8.50;;;19.70;99.90;;;;;;6127048;23;20462;-45
2021/07/22 04:20:37;;;;;;;12.47;9.60;;;19.70;99.90;;;;;;6126191;23;20489;-48
2021/07/22 04:23:04;;;;;;;10.00;8.20;;;19.70;99.90;;;;;;6126642;23;20770;-50
2021/07/22 04:25:31;;;;;;;17.23;9.63;;;19.70;99.90;;;;;;6126025;23;20403;-47
2021/07/22 04:27:57;;;;;;;12.10;9.27;;;19.70;99.90;;;;;;6126630;23;20714;-51
2021/07/22 04:30:25;;;;;;;13.63;8.57;;;19.80;99.90;;;;;;6126792;23;20403;-48
2021/07/22 04:32:56;;;;;;;14.70;9.23;;;19.80;99.90;;;;;;6126372;23;20489;-46
2021/07/22 04:35:26;;;;;;;14.10;9.60;;;19.80;99.90;;;;;;6127070;23;20750;-50
2021/07/22 04:37:52;;;;;;;14.87;10.83;;;19.80;99.90;;;;;;6126510;23;20469;-49
2021/07/22 04:40:20;;;;;;;13.83;8.93;;;19.90;99.90;;;;;;6127036;23;20411;-47
2021/07/22 04:42:47;;;;;;;13.53;8.30;;;19.80;99.90;;;;;;6128820;23;20399;-49
2021/07/22 04:45:14;;;;;;;14.47;9.23;;;19.80;99.90;;;;;;6128550;23;20512;-47
2021/07/22 04:47:45;;;;;;;16.83;9.67;;;19.80;99.90;;;;;;6129309;23;20750;-48
2021/07/22 04:50:13;;;;;;;11.47;8.47;;;19.80;99.90;;;;;;6128952;23;20505;-48
2021/07/22 04:52:42;;;;;;;12.83;9.50;;;19.80;99.90;;;;;;6127461;23;20448;-45
2021/07/22 04:55:10;;;;;;;9.53;7.67;;;19.90;99.90;;;;;;6127507;23;21088;-46
2021/07/22 04:57:39;;;;;;;14.67;9.67;;;20.00;99.90;;;;;;6127361;23;21021;-46
2021/07/22 05:00:07;;;;;;;11.90;9.33;;;20.00;99.90;;;;;;6129623;23;20763;-47
2021/07/22 05:02:34;;;;;;;15.70;10.13;;;20.10;99.90;;;;;;6129915;23;20483;-48
2021/07/22 05:05:02;;;;;;;11.43;8.77;;;20.10;99.90;;;;;;6129514;23;20402;-47
2021/07/22 05:07:29;;;;;;;17.73;9.67;;;20.20;99.90;;;;;;6129759;23;20418;-45
2021/07/22 05:09:55;;;;;;;10.30;9.20;;;20.30;99.90;;;;;;6129741;23;20418;-45
2021/07/22 05:12:22;;;;;;;14.73;9.67;;;20.30;99.90;;;;;;6129518;23;20449;-47
2021/07/22 05:14:49;;;;;;;12.57;8.77;;;20.40;99.90;;;;;;6131356;23;20810;-48
2021/07/22 05:17:15;;;;;;;12.50;8.77;;;20.50;99.90;;;;;;6131792;23;20865;-46
2021/07/22 05:19:42;;;;;;;13.23;9.10;;;20.50;99.90;;;;;;6130036;23;20414;-46
2021/07/22 05:22:10;;;;;;;13.70;9.47;;;20.60;99.90;;;;;;6130021;23;20406;-47
2021/07/22 05:24:37;;;;;;;13.63;9.93;;;20.60;99.90;;;;;;6131415;23;20436;-47
2021/07/22 05:27:04;;;;;;;14.67;7.73;;;20.60;99.90;;;;;;6130557;23;20485;-50
2021/07/22 05:29:30;;;;;;;14.03;8.07;;;20.60;99.90;;;;;;6129793;23;20469;-50
2021/07/22 05:31:57;;;;;;;21.13;8.97;;;20.70;99.90;;;;;;6129404;23;20407;-48
2021/07/22 05:34:24;;;;;;;10.13;7.97;;;20.70;99.90;;;;;;6128695;23;20423;-48
2021/07/22 05:36:51;;;;;;;14.03;8.57;;;20.70;99.90;;;;;;6128913;23;20473;-46
2021/07/22 05:39:20;;;;;;;10.83;8.57;;;20.80;99.90;;;;;;6129102;23;20466;-47
2021/07/22 05:41:46;;;;;;;13.37;8.03;;;20.80;99.90;;;;;;6129136;23;20410;-49
2021/07/22 05:44:13;;;;;;;11.50;7.70;;;20.90;99.90;;;;;;6129369;23;20462;-52
2021/07/22 05:46:39;;;;;;;10.50;7.50;;;20.90;99.90;;;;;;6129282;23;20443;-50
2021/07/22 05:49:07;;;;;;;11.40;7.70;;;21.00;99.90;;;;;;6129413;23;20478;-49
2021/07/22 05:51:34;;;;;;;14.03;9.20;;;21.00;99.90;;;;;;6129194;23;20410;-52
2021/07/22 05:54:00;;;;;;;11.53;8.93;;;21.10;99.90;;;;;;6128925;23;20457;-51
2021/07/22 05:56:28;;;;;;;14.17;10.83;;;21.20;99.90;;;;;;6129168;23;20747;-51
2021/07/22 05:58:55;;;;;;;12.77;8.90;;;21.30;99.90;;;;;;6128706;23;20418;-49
2021/07/22 06:01:22;;;;;;;10.23;8.37;;;21.40;99.90;;;;;;6128265;23;20870;-46
2021/07/22 06:03:48;;;;;;;10.87;7.63;;;21.50;99.90;;;;;;6128269;23;20454;-50
2021/07/22 06:06:15;;;;;;;11.47;7.93;;;21.50;99.90;;;;;;6128275;23;20485;-51
2021/07/22 06:08:42;;;;;;;10.70;8.80;;;21.60;99.90;;;;;;6128255;23;20501;-49
2021/07/22 06:11:12;;;;;;;12.57;8.93;;;21.60;99.90;;;;;;6128262;23;20403;-49
2021/07/22 06:13:41;;;;;;;12.47;8.60;;;21.60;99.90;;;;;;6128577;23;20755;-51
2021/07/22 06:16:11;;;;;;;10.37;7.87;;;21.80;99.90;;;;;;6128267;23;20434;-49
2021/07/22 06:18:37;;;;;;;11.77;8.10;;;21.80;99.90;;;;;;6128484;23;20403;-47
2021/07/22 06:21:04;;;;;;;13.23;8.53;;;21.90;99.90;;;;;;6129068;23;20730;-48
2021/07/22 06:23:31;;;;;;;16.60;8.50;;;21.90;99.90;;;;;;6130607;23;20403;-50
2021/07/22 06:25:58;;;;;;;10.60;7.80;;;22.00;99.90;;;;;;6128835;23;20402;-48
2021/07/22 06:28:25;;;;;;;14.50;8.77;;;22.10;99.90;;;;;;6127938;23;20469;-51
2021/07/22 06:30:54;;;;;;;11.77;8.13;;;22.30;99.90;;;;;;6128571;23;20466;-49
2021/07/22 06:33:21;;;;;;;10.00;8.60;;;22.30;99.90;;;;;;6127591;23;20435;-50
2021/07/22 06:35:48;;;;;;;12.57;8.30;;;22.40;99.90;;;;;;6128656;23;20402;-47
2021/07/22 06:38:15;;;;;;;11.87;9.10;;;22.40;99.90;;;;;;6128213;23;20750;-50
2021/07/22 06:40:42;;;;;;;11.47;9.00;;;22.40;99.90;;;;;;6127487;23;20788;-47
2021/07/22 06:43:10;;;;;;;9.93;7.87;;;22.50;99.90;;;;;;6127988;23;20407;-45
2021/07/22 06:45:37;;;;;;;12.77;8.00;;;22.60;99.90;;;;;;6127282;23;20473;-44
2021/07/22 06:48:06;;;;;;;8.47;7.07;;;22.80;99.90;;;;;;6127391;23;20414;-47
2021/07/22 06:50:34;;;;;;;12.17;9.73;;;22.90;99.90;;;;;;6127584;23;20414;-46
2021/07/22 06:53:02;;;;;;;10.00;8.10;;;23.00;99.90;;;;;;6127389;23;20453;-45
2021/07/22 06:55:29;;;;;;;11.83;8.90;;;23.20;99.90;;;;;;6127311;23;20477;-46
2021/07/22 06:57:56;;;;;;;11.30;8.27;;;23.30;99.90;;;;;;6127709;23;20747;-48
2021/07/22 07:00:22;;;;;;;10.50;7.80;;;23.40;99.90;;;;;;6127191;23;20411;-44
2021/07/22 07:02:49;;;;;;;9.50;7.97;;;23.40;99.90;;;;;;6127893;23;20409;-44
2021/07/22 07:05:17;;;;;;;14.37;10.10;;;23.40;99.90;;;;;;6127519;23;20433;-48
2021/07/22 07:07:44;;;;;;;12.17;8.60;;;23.40;99.90;;;;;;6127855;23;20410;-49
2021/07/22 07:10:11;;;;;;;7.73;6.77;;;23.40;99.90;;;;;;6127852;23;20752;-47
2021/07/22 07:12:38;;;;;;;10.43;8.23;;;23.40;99.90;;;;;;6127271;23;20406;-48
2021/07/22 07:15:07;;;;;;;10.50;7.47;;;23.50;99.90;;;;;;6127542;23;20513;-45
2021/07/22 07:17:34;;;;;;;12.23;8.83;;;23.60;99.90;;;;;;6127498;23;20422;-44
2021/07/22 07:20:01;;;;;;;11.13;8.77;;;23.70;99.90;;;;;;6127490;23;20758;-48
2021/07/22 07:22:29;;;;;;;11.93;7.30;;;23.90;99.90;;;;;;6126992;23;20862;-49
2021/07/22 07:24:55;;;;;;;10.67;8.00;;;24.10;99.90;;;;;;6127494;23;20824;-45
2021/07/22 07:27:22;;;;;;;9.70;7.50;;;24.40;99.90;;;;;;6127678;23;20475;-50
2021/07/22 07:29:49;;;;;;;10.97;8.03;;;24.80;99.90;;;;;;6127172;23;20407;-48
2021/07/22 07:32:17;;;;;;;10.97;7.30;;;25.10;99.90;;;;;;6127210;23;20419;-50
2021/07/22 07:34:43;;;;;;;13.00;8.50;;;25.60;99.90;;;;;;6127198;23;20443;-46
2021/07/22 07:37:10;;;;;;;13.03;8.00;;;26.20;99.90;;;;;;6127424;23;20837;-48
2021/07/22 07:39:38;;;;;;;8.27;7.33;;;26.80;99.90;;;;;;6127632;23;20471;-46
2021/07/22 07:42:05;;;;;;;8.23;7.33;;;27.40;99.90;;;;;;6127406;23;20522;-46
2021/07/22 07:44:31;;;;;;;11.83;8.50;;;27.90;99.90;;;;;;6127118;23;20406;-48
2021/07/22 07:46:58;;;;;;;10.03;6.87;;;28.10;99.90;;;;;;6127101;23;20395;-48
2021/07/22 07:49:25;;;;;;;8.50;7.30;;;28.40;99.60;;;;;;6125634;23;20407;-46
2021/07/22 07:51:51;;;;;;;9.57;7.53;;;28.60;98.50;;;;;;6126729;23;20390;-49
2021/07/22 07:54:21;;;;;;;8.67;6.37;;;29.50;95.70;;;;;;6126218;23;20494;-49
2021/07/22 07:56:49;;;;;;;8.83;7.30;;;30.40;93.70;;;;;;6127152;23;20770;-51
2021/07/22 07:59:16;;;;;;;13.70;8.00;;;30.80;90.30;;;;;;6127098;23;20888;-48
2021/07/22 08:01:43;;;;;;;10.37;7.10;;;31.00;87.10;;;;;;6127236;23;20475;-48
2021/07/22 08:04:10;;;;;;;8.97;8.03;;;30.80;83.60;;;;;;6126899;23;20407;-45
2021/07/22 08:06:37;;;;;;;8.37;7.47;;;30.90;82.70;;;;;;6126942;23;20471;-51
2021/07/22 08:09:03;;;;;;;12.60;6.67;;;31.00;81.20;;;;;;6127455;23;20411;-49
2021/07/22 08:11:30;;;;;;;8.30;7.50;;;31.10;81.30;;;;;;6127322;23;20419;-46
2021/07/22 08:13:58;;;;;;;9.60;7.27;;;31.20;78.50;;;;;;6127298;23;20439;-45
2021/07/22 08:16:25;;;;;;;10.73;7.90;;;30.80;79.30;;;;;;6127916;23;20466;-48
2021/07/22 08:18:52;;;;;;;8.70;7.17;;;30.50;78.50;;;;;;6128763;23;20766;-46
2021/07/22 08:21:19;;;;;;;7.77;6.33;;;31.00;76.90;;;;;;6129082;23;20857;-45
2021/07/22 08:23:46;;;;;;;10.07;8.00;;;31.40;75.60;;;;;;6129572;23;20406;-49
2021/07/22 08:26:12;;;;;;;14.07;7.77;;;31.30;75.00;;;;;;6129814;23;20445;-46
2021/07/22 08:28:40;;;;;;;9.27;8.27;;;31.20;75.70;;;;;;6129692;23;20419;-46
2021/07/22 08:31:09;;;;;;;12.93;8.10;;;31.40;74.00;;;;;;6128774;23;20403;-50
2021/07/22 08:33:36;;;;;;;8.43;7.33;;;31.70;73.90;;;;;;6129822;23;20427;-47
2021/07/22 08:36:03;;;;;;;8.57;7.43;;;32.10;71.90;;;;;;6130962;23;20781;-45
2021/07/22 08:38:30;;;;;;;8.17;6.50;;;32.50;70.00;;;;;;6131234;23;20656;-46
2021/07/22 08:40:57;;;;;;;7.57;6.87;;;31.90;69.40;;;;;;6129865;23;20421;-46
2021/07/22 08:43:27;;;;;;;8.50;7.33;;;30.90;71.40;;;;;;6130568;23;20432;-46
2021/07/22 08:45:55;;;;;;;10.40;8.13;;;29.90;74.60;;;;;;6129243;23;20521;-48
2021/07/22 08:48:23;;;;;;;7.80;6.87;;;29.50;76.10;;;;;;6130452;23;20738;-46
2021/07/22 08:50:50;;;;;;;7.90;7.10;;;30.00;74.90;;;;;;6129511;23;20851;-46
2021/07/22 08:53:18;;;;;;;9.20;7.07;;;30.80;72.90;;;;;;6129800;23;20784;-48
2021/07/22 08:55:45;;;;;;;11.07;8.13;;;31.10;70.90;;;;;;6130332;23;20405;-50
2021/07/22 08:58:12;;;;;;;12.50;8.20;;;30.80;71.20;;;;;;6129963;23;20466;-45
2021/07/22 09:00:39;;;;;;;9.27;7.80;;;30.40;71.60;;;;;;6130690;23;20414;-45
2021/07/22 09:03:11;;;;;;;11.40;7.37;;;29.70;74.10;;;;;;6131989;23;20406;-47
2021/07/22 09:05:39;;;;;;;10.00;8.07;;;29.20;74.70;;;;;;6131891;23;20398;-44
2021/07/22 09:08:07;;;;;;;9.27;6.27;;;28.50;77.00;;;;;;6130681;23;20418;-48
2021/07/22 09:10:34;;;;;;;9.80;8.30;;;27.80;79.60;;;;;;6130358;23;20417;-47
2021/07/22 09:13:01;;;;;;;11.87;7.37;;;27.00;81.30;;;;;;6130088;23;20411;-48
2021/07/22 09:15:31;;;;;;;9.13;7.70;;;26.20;84.70;;;;;;6129249;23;20434;-45
2021/07/22 09:17:58;;;;;;;11.93;9.20;;;25.80;87.60;;;;;;6130334;23;20770;-45
2021/07/22 09:20:32;;;;;;;8.33;7.00;;;26.40;89.10;;;;;;6130913;23;20417;-45
2021/07/22 09:23:00;;;;;;;9.13;7.53;;;28.00;85.00;;;;;;6131262;23;20403;-47
2021/07/22 09:25:45;;;;;;;8.67;7.00;;;29.50;79.30;;;;;;6130230;23;20897;-48
2021/07/22 09:28:13;;;;;;;8.40;7.43;;;30.80;73.60;;;;;;6129323;23;20434;-44
2021/07/22 09:30:54;;;;;;;7.50;6.70;;;31.60;71.00;;;;;;6129907;23;20387;-44
2021/07/22 09:33:33;;;;;;;10.37;7.33;;;32.40;67.90;;;;;;6129458;23;20387;-45
2021/07/22 09:35:59;;;;;;;9.40;7.10;;;33.10;63.50;;;;;;6129400;23;20442;-47
2021/07/22 09:38:28;;;;;;;7.10;6.40;;;32.70;62.10;;;;;;6129546;23;20407;-48
2021/07/22 09:40:56;;;;;;;8.43;6.70;;;32.10;62.60;;;;;;6129889;23;20481;-45
2021/07/22 09:43:36;;;;;;;7.17;6.47;;;32.00;62.70;;;;;;6130844;23;20406;-45
2021/07/22 09:46:03;;;;;;;7.50;6.80;;;31.80;62.90;;;;;;6127319;23;20501;-48
2021/07/22 09:48:30;;;;;;;8.57;6.20;;;31.10;63.50;;;;;;6132401;23;20858;-47
2021/07/22 09:50:56;;;;;;;7.10;6.40;;;31.30;63.10;;;;;;6131017;23;20924;-48
2021/07/22 09:53:25;;;;;;;8.93;6.90;;;32.00;61.20;;;;;;6129720;23;20406;-47
2021/07/22 09:55:56;;;;;;;9.40;7.23;;;31.70;61.50;;;;;;6128567;23;20759;-48
2021/07/22 09:58:23;;;;;;;7.97;7.10;;;31.10;64.00;;;;;;6130270;23;20482;-47
2021/07/22 10:00:51;;;;;;;8.57;6.57;;;31.40;64.80;;;;;;6126759;23;20403;-46
2021/07/22 10:03:20;;;;;;;8.30;7.17;;;32.00;63.30;;;;;;6126435;23;20442;-49
2021/07/22 10:05:51;;;;;;;6.70;6.00;;;31.70;62.70;;;;;;6126831;23;20498;-46
2021/07/22 10:08:18;;;;;;;6.97;6.27;;;30.90;63.90;;;;;;6127602;23;20411;-48
2021/07/22 10:10:51;;;;;;;11.80;7.50;;;30.00;65.20;;;;;;6127726;23;20406;-49
2021/07/22 10:13:23;;;;;;;7.50;6.40;;;29.10;68.20;;;;;;6127147;23;20375;-51
2021/07/22 10:15:51;;;;;;;8.70;6.93;;;28.10;70.40;;;;;;6127170;23;20387;-45
2021/07/22 10:18:22;;;;;;;10.83;6.47;;;27.40;73.60;;;;;;6128367;23;20893;-45
2021/07/22 10:20:52;;;;;;;7.50;6.40;;;26.90;75.40;;;;;;6127748;23;20429;-47
2021/07/22 10:23:19;;;;;;;9.03;7.23;;;26.50;77.30;;;;;;6128595;23;20443;-47
2021/07/22 10:25:48;;;;;;;7.43;6.67;;;26.10;77.30;;;;;;6128419;23;20414;-45
2021/07/22 10:28:15;;;;;;;8.90;6.23;;;25.90;79.60;;;;;;6128206;23;20403;-47
2021/07/22 10:30:45;;;;;;;9.57;6.67;;;26.30;82.30;;;;;;6128390;23;20589;-50
2021/07/22 10:33:13;;;;;;;8.23;6.70;;;27.30;79.80;;;;;;6128045;23;20414;-50
2021/07/22 10:35:40;;;;;;;7.30;6.50;;;27.70;77.30;;;;;;6128144;23;20446;-51
2021/07/22 10:38:09;;;;;;;8.43;7.10;;;27.70;76.30;;;;;;6127602;23;20465;-45
2021/07/22 10:40:54;;;;;;;7.90;6.73;;;27.50;78.00;;;;;;6127298;23;20505;-44
2021/07/22 10:43:40;;;;;;;16.23;6.67;;;27.10;78.80;;;;;;6128023;23;20410;-44
2021/07/22 10:46:10;;;;;;;9.87;7.57;;;26.60;80.30;;;;;;6127567;23;20905;-47
2021/07/22 10:48:37;;;;;;;8.07;7.10;;;26.20;82.20;;;;;;6128162;23;20394;-46
2021/07/22 10:51:06;;;;;;;8.40;6.80;;;25.90;82.80;;;;;;6128188;23;20399;-46
2021/07/22 10:53:47;;;;;;;9.60;6.37;;;25.60;83.60;;;;;;6128143;23;20414;-44
2021/07/22 10:56:15;;;;;;;7.73;6.17;;;25.20;85.10;;;;;;6127843;23;20846;-45
2021/07/22 10:58:56;;;;;;;9.30;7.60;;;24.80;86.40;;;;;;6127744;23;20422;-48
2021/07/22 11:01:52;;;;;;;9.43;7.20;;;24.50;88.60;;;;;;6128005;23;20407;-45
2021/07/22 11:04:41;;;;;;;7.73;6.73;;;24.30;90.40;;;;;;6122058;23;20410;-50
2021/07/22 11:07:26;;;;;;;9.00;6.80;;;24.20;92.00;;;;;;6127473;23;20453;-44
2021/07/22 11:09:57;;;;;;;7.90;7.03;;;24.00;93.80;;;;;;6128063;23;20466;-45
2021/07/22 11:12:45;;;;;;;11.60;7.50;;;23.80;95.20;;;;;;6128362;23;20402;-46
2021/07/22 11:16:00;;;;;;;8.73;6.90;;;23.70;96.60;;;;;;6128586;23;20466;-47
2021/07/22 11:18:54;;;;;;;10.27;7.40;;;23.50;97.90;;;;;;6128086;23;20453;-50
2021/07/22 11:21:26;;;;;;;9.50;7.23;;;23.30;99.90;;;;;;6128788;23;20826;-47
2021/07/22 11:23:58;;;;;;;7.83;7.03;;;23.20;99.90;;;;;;6128339;23;20391;-48
2021/07/22 11:26:26;;;;;;;12.73;8.20;;;23.10;99.90;;;;;;6128674;23;20391;-50
2021/07/22 11:28:53;;;;;;;8.43;7.20;;;23.00;99.90;;;;;;6127576;23;20407;-45
2021/07/22 11:31:20;;;;;;;13.90;7.23;;;23.10;99.90;;;;;;6128143;23;20411;-48
2021/07/22 11:33:47;;;;;;;9.63;7.60;;;23.10;99.90;;;;;;6127869;23;20760;-48
2021/07/22 11:36:18;;;;;;;10.90;8.27;;;23.10;99.90;;;;;;6128079;23;20483;-48
2021/07/22 11:38:50;;;;;;;9.97;7.00;;;23.00;99.90;;;;;;6127707;23;20410;-47
2021/07/22 11:41:17;;;;;;;9.33;7.80;;;23.00;99.90;;;;;;6128001;23;20711;-45
2021/07/22 11:43:46;;;;;;;11.40;8.60;;;23.00;99.90;;;;;;6127923;23;20402;-45
2021/07/22 11:46:15;;;;;;;15.00;8.47;;;23.00;99.90;;;;;;6127284;23;20434;-45
2021/07/22 11:48:42;;;;;;;13.27;8.20;;;23.00;99.90;;;;;;6127591;23;20434;-50
2021/07/22 11:51:10;;;;;;;15.43;8.30;;;23.10;99.90;;;;;;6127110;23;20909;-51
2021/07/22 11:53:39;;;;;;;8.73;6.30;;;23.10;99.90;;;;;;6127601;23;20461;-45
2021/07/22 11:56:15;;;;;;;10.23;7.40;;;23.10;99.90;;;;;;6127394;23;20889;-47
2021/07/22 11:58:46;;;;;;;14.57;8.17;;;23.10;99.90;;;;;;6127391;23;20433;-46
2021/07/22 12:01:13;;;;;;;11.10;7.57;;;23.20;99.90;;;;;;6127430;23;20722;-46
2021/07/22 12:03:40;;;;;;;9.70;7.90;;;23.10;99.90;;;;;;6127324;23;20750;-44
2021/07/22 12:06:06;;;;;;;15.00;8.17;;;23.20;99.90;;;;;;6128053;23;20430;-44
2021/07/22 12:08:33;;;;;;;9.73;8.60;;;23.20;99.90;;;;;;6128983;23;20877;-46
2021/07/22 12:11:03;;;;;;;10.97;8.30;;;23.20;99.90;;;;;;6129011;23;20469;-48
2021/07/22 12:13:46;;;;;;;28.37;23.43;;;23.30;99.90;;;;;;6128296;23;20430;-44
2021/07/22 12:16:13;;;;;;;18.67;13.33;;;23.20;99.90;;;;;;6129003;23;20466;-45
2021/07/22 12:18:40;;;;;;;13.17;9.30;;;23.30;99.90;;;;;;6128454;23;20415;-44
2021/07/22 12:21:19;;;;;;;10.17;9.07;;;23.30;99.90;;;;;;6126861;23;20481;-50
2021/07/22 12:23:45;;;;;;;10.93;8.60;;;23.40;99.90;;;;;;6127329;23;20406;-49
2021/07/22 12:26:16;;;;;;;11.70;9.60;;;23.50;99.90;;;;;;6127019;23;20711;-49
2021/07/22 12:28:43;;;;;;;11.60;8.83;;;23.60;99.90;;;;;;6127832;23;20760;-47
2021/07/22 12:31:19;;;;;;;13.33;8.03;;;23.70;99.90;;;;;;6127490;23;20449;-47
2021/07/22 12:33:58;;;;;;;12.30;8.30;;;23.70;99.90;;;;;;6127379;23;20418;-46
2021/07/22 12:36:24;;;;;;;11.57;8.10;;;23.80;99.90;;;;;;6127359;23;20469;-46
2021/07/22 12:39:16;;;;;;;13.63;9.63;;;24.00;99.90;;;;;;6127308;23;20461;-48
2021/07/22 12:41:46;;;;;;;12.50;9.00;;;24.10;99.90;;;;;;6126733;23;20854;-46
2021/07/22 12:44:40;;;;;;;12.87;10.53;;;24.20;99.90;;;;;;6127347;23;20760;-46